Portada
METAR-TAF:

METAR-TAF

Aeropuertos :

Aeropuerto de Gibraltar

Gibraltar, Gibraltar

latitud: 36-09N, longitud: 005-21W, altitud: 5 m

Observación

El informe se hizo hace 45 minutos, a las 02:50 UTC
Viento 2 kt del oeste
Temperatura 21°C
Humedad 94%
Presión 1013 hPa
Visibilidad: 0200 m
niebla

METAR: LXGB 300250Z AUTO 27002KT 0200 FG BKN001/// 21/20 Q1013

Hora: 05:35 (03:35 UTC)

Pronóstico

El informe se hizo hace 8 horas y 1 minutos, a las 19:34 UTC
Pronóstico válido del 29 a las 21 UTC al 29 a las 23 UTC
Viento 5 kt del este
Visibilidad: 5000 m
Nubes dispersas a una altura de 500 ft
calima
Probabilidad 40% :
Temporalmente
del 29 a las 21 UTC al 29 a las 23 UTC
Nubes dispersas a una altura de 400 ft

TAF: LXGB 291934Z 2921/2923 09005KT 5000 HZ SCT005 PROB40 TEMPO 2921/2923 SCT004

Observaciones y pronósticos meteorológicos de más de 4000 aeropuertos (mensajes METAR y TAF).

Los puntos amarillos y rojos representan las estaciones disponibles.

Ponga el ratón en el punto deseado para ver el nombre de la estación.

Haga clic para ver las observaciones y los pronósticos meteorológicos.

Para cambiar el mapa : haga clic en los botones verdes con una cruz de color negro para hacer un zoom, en el botón verde con un guión para alejar o en las flechas verdes para mapas adyacentes.


METAR-TAF: